Terminal Aerodrome Forecast
Issued by NWS

Home | Current Version | Previous Version | Text Only | Print | Product List | Glossary On
Versions: 1 2 3 4 5 6 7 8 9 10 11 12 13 14 15 16
000
FTUS41 KCLE 181726
TAFFDY
TAF
KFDY 181726Z 1818/1918 27014G20KT P6SM SCT028 BKN035
      TEMPO 1818/1822 BKN028
     FM182200 27012KT P6SM SCT035 BKN090
     FM190000 27010KT P6SM FEW035 SCT120
     FM190800 VRB03KT 6SM BR VCSH SCT045 BKN110
     FM191400 22005KT P6SM BKN030
     FM191600 26007KT P6SM BKN035=

USA.gov is the U.S. government's official web portal to all federal, state and local government web resources and services.